Time;durP1;ratioP1;P1;durP2;ratioP2;P2;SDS_P1;SDS_P2;PMS_P1;PMS_P2;Temp;Humidity;BMP_temperature;BMP_pressure;BME280_temperature;BME280_humidity;BME280_pressure;Samples;Min_cycle;Max_cycle;Signal;HPM_P1;HPM_P2
2023/04/17 00:00:26;;;;;;;716.20;659.80;;;9.60;99.90;;;;;;6185299;23;20426;-84
2023/04/17 00:02:54;;;;;;;707.50;652.27;;;9.50;99.90;;;;;;6184885;23;21001;-84
2023/04/17 00:05:25;;;;;;;697.37;644.43;;;9.50;99.90;;;;;;6158418;23;20453;-84
2023/04/17 00:07:54;;;;;;;699.40;646.60;;;9.60;99.90;;;;;;6159581;23;20417;-84
2023/04/17 00:10:23;;;;;;;708.83;654.00;;;9.60;99.90;;;;;;6185191;23;20437;-84
2023/04/17 00:12:53;;;;;;;692.30;638.87;;;9.70;99.90;;;;;;6184025;23;20452;-84
2023/04/17 00:15:20;;;;;;;689.80;637.00;;;9.50;99.90;;;;;;6158173;23;20810;-84
2023/04/17 00:17:48;;;;;;;684.33;633.83;;;9.50;99.90;;;;;;6184455;23;20935;-83
2023/04/17 00:20:15;;;;;;;686.27;634.60;;;9.50;99.90;;;;;;6184779;23;21007;-84
2023/04/17 00:22:43;;;;;;;665.73;616.20;;;9.50;99.90;;;;;;6184552;23;21036;-84
2023/04/17 00:25:11;;;;;;;652.87;605.40;;;9.50;99.90;;;;;;6184263;23;20458;-95
2023/04/17 00:27:46;;;;;;;672.17;621.97;;;9.50;99.90;;;;;;6194411;23;20389;-96
2023/04/17 00:30:15;;;;;;;690.80;638.47;;;9.50;99.90;;;;;;6171689;23;20798;-80
2023/04/17 00:32:43;;;;;;;695.53;642.07;;;9.40;99.90;;;;;;6155435;23;20482;-80
2023/04/17 00:35:10;;;;;;;685.97;633.57;;;9.40;99.90;;;;;;6184780;23;20419;-80
2023/04/17 00:37:37;;;;;;;713.50;659.47;;;9.40;99.90;;;;;;6184522;23;20413;-80
2023/04/17 00:40:05;;;;;;;730.70;672.60;;;9.40;99.90;;;;;;6183755;23;20419;-81
2023/04/17 00:42:32;;;;;;;713.07;657.77;;;9.40;99.90;;;;;;6183475;23;20467;-81
2023/04/17 00:45:00;;;;;;;711.13;656.80;;;9.40;99.90;;;;;;6184105;23;20433;-80
2023/04/17 00:47:28;;;;;;;686.87;634.63;;;9.40;99.90;;;;;;6183600;23;20417;-81
2023/04/17 00:49:56;;;;;;;700.83;647.23;;;9.50;99.90;;;;;;6183491;23;20433;-81
2023/04/17 00:52:28;;;;;;;684.40;632.73;;;9.50;99.90;;;;;;6183564;23;20432;-80
2023/04/17 00:55:01;;;;;;;688.87;635.63;;;9.50;99.90;;;;;;6184396;23;20440;-80
2023/04/17 00:57:28;;;;;;;682.97;632.37;;;9.50;99.90;;;;;;6184348;23;20397;-80
2023/04/17 00:59:57;;;;;;;713.30;658.40;;;9.50;99.90;;;;;;6184602;23;20410;-80
2023/04/17 01:02:28;;;;;;;699.07;643.63;;;9.40;99.90;;;;;;6184451;23;20483;-80
2023/04/17 01:04:55;;;;;;;692.73;639.00;;;9.40;99.90;;;;;;6183696;23;20445;-80
2023/04/17 01:07:22;;;;;;;691.13;639.13;;;9.50;99.90;;;;;;6184402;23;20451;-80
2023/04/17 01:09:48;;;;;;;700.13;647.87;;;9.50;99.90;;;;;;6184282;23;20469;-80
2023/04/17 01:12:20;;;;;;;684.37;632.67;;;9.40;99.90;;;;;;6184057;23;20952;-80
2023/04/17 01:14:47;;;;;;;702.27;646.77;;;9.40;99.90;;;;;;6157432;23;20447;-80
2023/04/17 01:17:14;;;;;;;704.10;650.50;;;9.50;99.90;;;;;;6184192;23;20994;-80
2023/04/17 01:19:42;;;;;;;696.20;643.33;;;9.50;99.90;;;;;;6183998;23;20409;-80
2023/04/17 01:22:09;;;;;;;716.47;659.00;;;9.50;99.90;;;;;;6184404;23;20413;-80
2023/04/17 01:24:38;;;;;;;705.60;649.60;;;9.60;99.90;;;;;;6194016;23;20731;-80
2023/04/17 01:27:05;;;;;;;709.03;652.50;;;9.50;99.90;;;;;;6183176;23;20527;-80
2023/04/17 01:29:32;;;;;;;718.37;662.47;;;9.60;99.90;;;;;;6183718;23;20495;-80
2023/04/17 01:31:59;;;;;;;695.87;641.67;;;9.60;99.90;;;;;;6184381;23;20399;-80
2023/04/17 01:34:26;;;;;;;692.30;639.80;;;9.60;99.90;;;;;;6184239;23;20433;-80
2023/04/17 01:36:53;;;;;;;707.20;652.50;;;9.50;99.90;;;;;;6183748;23;20420;-80
2023/04/17 01:39:20;;;;;;;675.70;626.53;;;9.60;99.90;;;;;;6183932;23;20420;-80
2023/04/17 01:41:50;;;;;;;697.17;643.67;;;9.50;99.90;;;;;;6183918;23;20413;-80
2023/04/17 01:44:17;;;;;;;678.53;626.73;;;9.60;99.90;;;;;;6157382;23;20445;-80
2023/04/17 01:46:45;;;;;;;680.97;630.30;;;9.50;99.90;;;;;;6184149;23;20443;-80
2023/04/17 01:49:13;;;;;;;682.07;631.10;;;9.50;99.90;;;;;;6184058;23;20448;-80
2023/04/17 01:51:40;;;;;;;669.30;619.50;;;9.60;99.90;;;;;;6186273;23;20412;-81
2023/04/17 01:54:07;;;;;;;670.43;621.37;;;9.60;99.90;;;;;;6186201;23;20433;-80
2023/04/17 01:56:34;;;;;;;659.63;612.53;;;9.50;99.90;;;;;;6185489;23;20420;-80
2023/04/17 01:59:07;;;;;;;678.73;629.03;;;9.50;99.90;;;;;;6186288;23;20507;-80
2023/04/17 02:01:35;;;;;;;670.60;621.40;;;9.60;99.90;;;;;;6159409;23;20427;-80
2023/04/17 02:04:02;;;;;;;659.60;611.60;;;9.50;99.90;;;;;;6185953;23;20433;-80
2023/04/17 02:06:30;;;;;;;667.57;618.27;;;9.50;99.90;;;;;;6186141;23;20414;-80
2023/04/17 02:08:58;;;;;;;686.30;633.27;;;9.50;99.90;;;;;;6185668;23;20417;-80
2023/04/17 02:11:25;;;;;;;678.53;628.17;;;9.50;99.90;;;;;;6186293;23;20499;-80
2023/04/17 02:13:52;;;;;;;674.07;624.00;;;9.50;99.90;;;;;;6159157;23;20437;-80
2023/04/17 02:16:21;;;;;;;679.37;628.83;;;9.50;99.90;;;;;;6195701;23;20748;-80
2023/04/17 02:18:49;;;;;;;681.90;631.57;;;9.50;99.90;;;;;;6159278;23;20417;-80
2023/04/17 02:21:16;;;;;;;660.53;614.23;;;9.50;99.90;;;;;;6186057;23;20420;-80
2023/04/17 02:23:45;;;;;;;672.33;623.87;;;9.50;99.90;;;;;;6185648;23;20436;-80
2023/04/17 02:26:17;;;;;;;643.60;600.50;;;9.50;99.90;;;;;;6159090;23;20931;-80
2023/04/17 02:28:46;;;;;;;648.50;603.87;;;9.50;99.90;;;;;;6195396;23;20957;-80
2023/04/17 02:31:18;;;;;;;647.60;604.13;;;9.50;99.90;;;;;;6185156;23;20750;-80
2023/04/17 02:33:53;;;;;;;642.00;598.90;;;9.50;99.90;;;;;;6185149;23;20436;-81
2023/04/17 02:36:20;;;;;;;648.53;605.27;;;9.50;99.90;;;;;;6184663;23;20429;-80
2023/04/17 02:38:48;;;;;;;633.13;592.73;;;9.40;99.90;;;;;;6195489;23;20441;-80
2023/04/17 02:41:15;;;;;;;605.40;570.00;;;9.40;99.90;;;;;;6159362;23;20417;-80
2023/04/17 02:43:46;;;;;;;664.57;619.27;;;9.40;99.90;;;;;;6185754;23;20432;-80
2023/04/17 02:46:13;;;;;;;659.23;615.17;;;9.40;99.90;;;;;;6185550;23;20403;-80
2023/04/17 02:48:48;;;;;;;685.83;634.40;;;9.30;99.90;;;;;;6185208;23;20413;-80
2023/04/17 02:51:17;;;;;;;641.70;598.20;;;9.40;99.90;;;;;;6159841;23;20440;-80
2023/04/17 02:53:47;;;;;;;644.97;600.17;;;9.40;99.90;;;;;;6185502;23;20432;-81
2023/04/17 02:56:14;;;;;;;633.80;591.13;;;9.30;99.90;;;;;;6185490;23;20413;-80
2023/04/17 02:58:44;;;;;;;649.53;604.23;;;9.30;99.90;;;;;;6185774;23;20465;-79
2023/04/17 03:01:15;;;;;;;641.77;597.00;;;9.30;99.90;;;;;;6184696;23;20409;-80
2023/04/17 03:03:43;;;;;;;612.40;573.10;;;9.30;99.90;;;;;;6168760;23;20821;-80
2023/04/17 03:06:11;;;;;;;668.53;618.37;;;9.40;99.90;;;;;;6184982;23;20987;-80
2023/04/17 03:08:40;;;;;;;688.30;636.50;;;9.40;99.90;;;;;;6185556;23;20413;-80
2023/04/17 03:11:09;;;;;;;668.83;619.47;;;9.30;99.90;;;;;;6185429;23;20488;-80
2023/04/17 03:13:36;;;;;;;668.97;618.07;;;9.20;99.90;;;;;;6184864;23;20486;-80
2023/04/17 03:16:04;;;;;;;682.57;628.70;;;9.30;99.90;;;;;;6185461;23;20472;-80
2023/04/17 03:18:32;;;;;;;682.60;631.20;;;9.30;99.90;;;;;;6185091;23;20909;-80
2023/04/17 03:21:00;;;;;;;701.37;646.90;;;9.20;99.90;;;;;;6185730;23;20496;-80
2023/04/17 03:23:27;;;;;;;699.73;644.07;;;9.20;99.90;;;;;;6194885;23;20433;-80
2023/04/17 03:25:59;;;;;;;698.00;644.20;;;9.30;99.90;;;;;;6185158;23;20413;-80
2023/04/17 03:28:29;;;;;;;698.60;644.67;;;9.20;99.90;;;;;;6194933;23;20393;-80
2023/04/17 03:30:58;;;;;;;702.40;648.90;;;9.20;99.90;;;;;;6184545;23;20433;-80
2023/04/17 03:33:26;;;;;;;692.83;639.90;;;9.20;99.90;;;;;;6193455;23;20748;-80
2023/04/17 03:35:52;;;;;;;664.33;615.13;;;9.30;99.90;;;;;;6184739;23;20420;-80
2023/04/17 03:38:19;;;;;;;685.70;632.33;;;9.20;99.90;;;;;;6185378;23;20413;-79
2023/04/17 03:40:46;;;;;;;704.07;648.57;;;9.20;99.90;;;;;;6185256;23;20813;-80
2023/04/17 03:43:15;;;;;;;706.83;653.67;;;9.20;99.90;;;;;;6184863;23;20470;-80
2023/04/17 03:45:42;;;;;;;707.63;654.90;;;9.20;99.90;;;;;;6185270;23;20993;-80
2023/04/17 03:48:09;;;;;;;706.20;652.50;;;9.10;99.90;;;;;;6185025;23;20500;-80
2023/04/17 03:50:37;;;;;;;692.33;639.73;;;9.20;99.90;;;;;;6185184;23;20433;-80
2023/04/17 03:53:06;;;;;;;675.93;625.73;;;9.20;99.90;;;;;;6184111;23;20956;-80
2023/04/17 03:55:35;;;;;;;677.97;625.97;;;9.10;99.90;;;;;;6184520;23;20814;-80
2023/04/17 03:58:01;;;;;;;666.90;616.20;;;9.30;99.90;;;;;;6184875;23;20451;-80
2023/04/17 04:00:32;;;;;;;669.67;620.27;;;9.20;99.90;;;;;;6185063;23;20467;-76
2023/04/17 04:02:59;;;;;;;696.13;642.67;;;9.30;99.90;;;;;;6194209;23;20495;-80
2023/04/17 04:05:26;;;;;;;678.57;626.90;;;9.10;99.90;;;;;;6194762;23;20492;-81
2023/04/17 04:07:54;;;;;;;699.20;644.30;;;9.10;99.90;;;;;;6184079;23;20417;-80
2023/04/17 04:10:21;;;;;;;683.43;630.37;;;9.10;99.90;;;;;;6183975;23;20433;-81
2023/04/17 04:12:49;;;;;;;682.73;630.43;;;9.10;99.90;;;;;;6168094;23;20464;-81
2023/04/17 04:15:16;;;;;;;692.90;638.80;;;9.10;99.90;;;;;;6184378;23;20921;-81
2023/04/17 04:17:46;;;;;;;674.07;623.40;;;9.00;99.90;;;;;;6184736;23;20419;-81
2023/04/17 04:20:13;;;;;;;696.60;641.43;;;9.10;99.90;;;;;;6184790;23;20417;-80
2023/04/17 04:22:43;;;;;;;677.07;624.17;;;9.00;99.90;;;;;;6183792;23;20417;-80
2023/04/17 04:25:14;;;;;;;671.80;621.77;;;9.00;99.90;;;;;;6184816;23;20397;-80
2023/04/17 04:27:48;;;;;;;665.67;614.50;;;9.00;99.90;;;;;;6185025;23;20404;-81
2023/04/17 04:30:20;;;;;;;680.50;628.53;;;9.00;99.90;;;;;;6184218;23;20515;-81
2023/04/17 04:32:50;;;;;;;683.17;631.07;;;8.90;99.90;;;;;;6184269;23;20397;-80
2023/04/17 04:35:17;;;;;;;687.90;635.10;;;8.90;99.90;;;;;;6184038;23;20457;-80
2023/04/17 04:37:45;;;;;;;687.57;636.83;;;9.00;99.90;;;;;;6183692;23;20480;-80
2023/04/17 04:40:15;;;;;;;681.63;631.13;;;9.00;99.90;;;;;;6157727;23;20952;-81
2023/04/17 04:42:48;;;;;;;703.03;650.23;;;9.00;99.90;;;;;;6183048;23;20496;-80
2023/04/17 04:45:17;;;;;;;701.83;648.87;;;8.90;99.90;;;;;;6184663;23;20777;-80
2023/04/17 04:47:47;;;;;;;685.67;633.50;;;9.00;99.90;;;;;;6183956;23;20423;-80
2023/04/17 04:50:23;;;;;;;696.33;640.80;;;9.00;99.90;;;;;;6194177;23;20483;-80
2023/04/17 04:52:51;;;;;;;695.20;639.27;;;8.90;99.90;;;;;;6184213;23;20726;-80
2023/04/17 04:55:20;;;;;;;691.47;636.60;;;9.00;99.90;;;;;;6183675;23;20413;-81
2023/04/17 04:57:47;;;;;;;690.83;635.33;;;9.00;99.90;;;;;;6183688;23;20448;-80
2023/04/17 05:00:16;;;;;;;683.50;629.90;;;9.00;99.90;;;;;;6184319;23;20413;-80
2023/04/17 05:02:44;;;;;;;700.87;644.80;;;9.00;99.90;;;;;;6193568;23;20421;-80
2023/04/17 05:05:11;;;;;;;709.13;652.17;;;9.00;99.90;;;;;;6183906;23;20413;-80
2023/04/17 05:07:42;;;;;;;688.83;634.43;;;8.80;99.90;;;;;;6184176;23;20421;-80
2023/04/17 05:10:10;;;;;;;686.07;631.47;;;8.90;99.90;;;;;;6184451;23;20422;-80
2023/04/17 05:12:37;;;;;;;695.53;638.67;;;8.90;99.90;;;;;;6184592;23;20431;-80
2023/04/17 05:15:15;;;;;;;690.70;636.93;;;8.90;99.90;;;;;;6184617;23;20538;-80
2023/04/17 05:17:43;;;;;;;680.30;627.57;;;8.90;99.90;;;;;;6185079;23;20404;-80
2023/04/17 05:20:14;;;;;;;673.07;620.67;;;8.90;99.90;;;;;;6183511;23;20496;-80
2023/04/17 05:22:42;;;;;;;648.23;602.07;;;8.90;99.90;;;;;;6183552;23;20413;-80
2023/04/17 05:25:10;;;;;;;663.10;613.50;;;9.00;99.90;;;;;;6183717;23;20421;-79
2023/04/17 05:27:37;;;;;;;659.03;610.37;;;9.10;99.90;;;;;;6184109;23;20417;-80
2023/04/17 05:30:07;;;;;;;680.43;627.87;;;9.10;99.90;;;;;;6183721;23;20441;-80
2023/04/17 05:32:34;;;;;;;671.37;618.90;;;9.10;99.90;;;;;;6183495;23;20436;-80
2023/04/17 05:35:01;;;;;;;672.43;618.73;;;9.00;99.90;;;;;;6193925;23;20544;-80
2023/04/17 05:37:28;;;;;;;658.77;608.17;;;9.10;99.90;;;;;;6183439;23;20914;-80
2023/04/17 05:39:58;;;;;;;669.87;618.57;;;9.20;99.90;;;;;;6157915;23;20412;-80
2023/04/17 05:42:25;;;;;;;671.57;619.87;;;9.10;99.90;;;;;;6184245;23;20440;-79
2023/04/17 05:44:52;;;;;;;668.90;618.37;;;9.30;99.90;;;;;;6184282;23;20461;-79
2023/04/17 05:47:20;;;;;;;666.47;617.40;;;9.30;99.90;;;;;;6183439;23;20425;-79
2023/04/17 05:49:50;;;;;;;670.13;619.57;;;9.30;99.90;;;;;;6184082;23;20467;-79
2023/04/17 05:52:17;;;;;;;661.60;612.90;;;9.30;99.90;;;;;;6183334;23;20416;-79
2023/04/17 05:54:44;;;;;;;668.63;619.80;;;9.40;99.90;;;;;;6134100;23;20432;-79
2023/04/17 05:57:12;;;;;;;659.33;610.80;;;9.40;99.90;;;;;;6183898;23;20901;-79
2023/04/17 05:59:44;;;;;;;650.60;603.90;;;9.50;99.90;;;;;;6184675;23;20467;-80
2023/04/17 06:02:11;;;;;;;631.53;587.27;;;9.50;99.90;;;;;;6184144;23;20390;-80
2023/04/17 06:04:38;;;;;;;647.03;602.03;;;9.50;99.90;;;;;;6182593;23;20437;-79
2023/04/17 06:07:06;;;;;;;635.47;592.23;;;9.50;99.90;;;;;;6192545;23;20817;-79
2023/04/17 06:09:35;;;;;;;643.83;599.33;;;9.40;99.90;;;;;;6156692;23;20424;-79
2023/04/17 06:12:02;;;;;;;637.43;592.90;;;9.60;99.90;;;;;;6183677;23;20433;-79
2023/04/17 06:14:30;;;;;;;638.70;595.20;;;9.60;99.90;;;;;;6183583;23;20535;-79
2023/04/17 06:16:57;;;;;;;618.53;578.47;;;9.70;99.90;;;;;;6183419;23;20431;-79
2023/04/17 06:19:24;;;;;;;622.73;583.27;;;9.60;99.90;;;;;;6184028;23;20412;-79
2023/04/17 06:21:51;;;;;;;619.23;580.37;;;9.70;99.90;;;;;;6183444;23;20409;-79
2023/04/17 06:24:18;;;;;;;627.30;584.80;;;9.80;99.90;;;;;;6155933;23;20975;-79
2023/04/17 06:26:45;;;;;;;612.37;573.07;;;9.90;99.90;;;;;;6182025;23;20424;-79
2023/04/17 06:29:14;;;;;;;621.47;580.97;;;9.70;99.90;;;;;;6183074;23;20749;-79
2023/04/17 06:31:42;;;;;;;625.80;585.13;;;9.70;99.90;;;;;;6183030;23;21052;-79
2023/04/17 06:34:09;;;;;;;620.60;580.43;;;9.70;99.90;;;;;;6183455;23;20439;-80
2023/04/17 06:36:37;;;;;;;629.17;589.17;;;9.70;99.90;;;;;;6183127;23;20916;-80
2023/04/17 06:39:04;;;;;;;605.00;568.73;;;9.70;99.90;;;;;;6159631;23;20421;-80
2023/04/17 06:41:31;;;;;;;606.17;567.90;;;9.70;99.90;;;;;;6185790;23;20423;-79
2023/04/17 06:43:58;;;;;;;603.47;566.17;;;9.70;99.90;;;;;;6185612;23;20769;-80
2023/04/17 06:46:25;;;;;;;587.47;551.93;;;9.80;99.90;;;;;;6185236;23;20491;-79
2023/04/17 06:48:56;;;;;;;554.23;521.97;;;9.90;99.90;;;;;;6158768;23;20914;-79
2023/04/17 06:51:29;;;;;;;553.93;521.43;;;10.00;99.90;;;;;;6185204;23;20424;-80
2023/04/17 06:53:56;;;;;;;523.37;494.27;;;9.90;99.90;;;;;;6195168;23;20437;-77
2023/04/17 06:56:24;;;;;;;544.63;513.23;;;10.00;99.90;;;;;;6183879;23;20744;-77
2023/04/17 06:58:53;;;;;;;554.80;522.03;;;10.00;99.90;;;;;;6158107;23;20477;-82
2023/04/17 07:01:20;;;;;;;579.50;545.10;;;10.20;99.90;;;;;;6184748;23;20176;-77
2023/04/17 07:03:49;;;;;;;475.03;449.50;;;10.20;99.90;;;;;;6184421;23;21011;-79
2023/04/17 07:06:18;;;;;;;458.03;433.37;;;10.10;99.90;;;;;;6185686;23;20419;-78
2023/04/17 07:08:45;;;;;;;445.00;421.07;;;10.20;99.90;;;;;;6185608;23;20420;-77
2023/04/17 07:11:11;;;;;;;441.90;419.30;;;10.20;99.90;;;;;;6159068;23;20440;-77
2023/04/17 07:13:38;;;;;;;453.63;430.47;;;10.20;99.90;;;;;;6184407;23;20461;-77
2023/04/17 07:16:06;;;;;;;442.23;419.63;;;10.30;99.90;;;;;;6185020;23;20419;-76
2023/04/17 07:18:32;;;;;;;414.40;394.60;;;10.20;99.90;;;;;;6185143;23;20428;-76
2023/04/17 07:21:00;;;;;;;453.43;430.17;;;10.20;99.90;;;;;;6159041;23;20413;-76
2023/04/17 07:23:28;;;;;;;424.30;403.80;;;10.20;99.90;;;;;;6185186;23;20436;-76
2023/04/17 07:25:55;;;;;;;426.37;405.57;;;10.30;99.90;;;;;;6184848;23;20413;-76
2023/04/17 07:28:22;;;;;;;397.33;377.63;;;10.30;99.90;;;;;;6195053;23;20413;-76
2023/04/17 07:30:48;;;;;;;408.60;387.43;;;10.40;99.90;;;;;;6184957;23;20475;-76
2023/04/17 07:33:15;;;;;;;400.63;379.73;;;10.50;99.90;;;;;;6184463;23;20444;-76
2023/04/17 07:35:43;;;;;;;327.97;312.17;;;10.50;99.90;;;;;;6184810;23;20497;-77
2023/04/17 07:38:10;;;;;;;346.93;330.03;;;10.60;99.90;;;;;;6185250;23;20413;-77
2023/04/17 07:40:38;;;;;;;308.20;293.20;;;10.80;99.90;;;;;;6183479;23;20420;-76
2023/04/17 07:43:06;;;;;;;277.43;263.23;;;10.80;99.90;;;;;;6183931;23;20432;-76
2023/04/17 07:45:35;;;;;;;248.03;234.33;;;10.90;99.90;;;;;;6183918;23;20413;-76
2023/04/17 07:48:02;;;;;;;214.63;203.53;;;10.80;99.90;;;;;;6184548;23;20413;-76
2023/04/17 07:50:29;;;;;;;218.07;207.67;;;10.80;99.90;;;;;;6184548;23;20416;-76
2023/04/17 07:52:56;;;;;;;180.70;171.10;;;10.70;99.90;;;;;;6184076;23;20417;-76
2023/04/17 07:55:23;;;;;;;141.20;131.50;;;10.80;99.90;;;;;;6184579;23;20734;-76
2023/04/17 07:57:51;;;;;;;95.63;88.53;;;11.10;99.90;;;;;;6184531;23;20413;-76
2023/04/17 08:00:20;;;;;;;81.67;75.17;;;11.20;99.90;;;;;;6184245;23;21084;-76
2023/04/17 08:02:47;;;;;;;74.17;68.13;;;11.10;99.90;;;;;;6184487;23;20416;-76
2023/04/17 08:05:16;;;;;;;57.63;49.63;;;11.10;99.90;;;;;;6182587;23;20416;-77
2023/04/17 08:07:43;;;;;;;52.17;45.17;;;11.20;99.90;;;;;;6157142;23;20483;-77
2023/04/17 08:10:13;;;;;;;50.20;37.10;;;11.20;99.90;;;;;;6184278;23;20443;-77
2023/04/17 08:12:40;;;;;;;49.73;43.90;;;11.50;99.90;;;;;;6184365;23;20429;-78
2023/04/17 08:15:13;;;;;;;51.73;40.00;;;11.80;99.90;;;;;;6184458;23;20450;-77
2023/04/17 08:17:40;;;;;;;53.70;37.73;;;11.90;99.90;;;;;;6184672;23;20398;-77
2023/04/17 08:20:10;;;;;;;41.70;30.40;;;11.90;99.90;;;;;;6157441;23;20449;-78
2023/04/17 08:22:39;;;;;;;41.20;24.50;;;11.90;99.90;;;;;;6193642;23;20448;-78
2023/04/17 08:25:08;;;;;;;40.27;26.67;;;11.80;99.90;;;;;;6183234;23;21095;-78
2023/04/17 08:27:35;;;;;;;46.20;29.67;;;11.90;99.90;;;;;;6183937;23;20428;-79
2023/04/17 08:30:02;;;;;;;39.80;27.83;;;12.10;99.90;;;;;;6193678;23;20459;-78
2023/04/17 08:32:37;;;;;;;41.87;25.23;;;12.30;99.90;;;;;;6184508;23;20480;-77
2023/04/17 08:35:05;;;;;;;39.47;25.87;;;12.60;99.90;;;;;;6183918;23;20937;-78
2023/04/17 08:37:36;;;;;;;40.50;25.97;;;12.70;99.90;;;;;;6182180;23;20417;-78
2023/04/17 08:40:05;;;;;;;35.17;24.53;;;12.80;99.90;;;;;;6183623;23;20771;-78
2023/04/17 08:42:35;;;;;;;38.33;25.03;;;12.60;99.90;;;;;;6183370;23;20409;-78
2023/04/17 08:45:08;;;;;;;35.07;24.20;;;12.90;99.90;;;;;;6183383;23;20862;-78
2023/04/17 08:47:38;;;;;;;36.20;25.90;;;13.20;99.90;;;;;;6184168;23;20471;-78
2023/04/17 08:50:10;;;;;;;36.13;23.97;;;13.40;99.90;;;;;;6183706;23;20424;-79
2023/04/17 08:52:41;;;;;;;34.43;21.40;;;13.70;99.90;;;;;;6184373;23;21024;-78
2023/04/17 08:55:12;;;;;;;29.70;22.37;;;13.70;99.90;;;;;;6183580;23;20423;-78
2023/04/17 08:57:57;;;;;;;31.60;21.37;;;13.50;99.90;;;;;;6183620;23;20501;-78
2023/04/17 09:00:26;;;;;;;33.50;25.17;;;13.20;99.90;;;;;;6183734;23;20897;-78
2023/04/17 09:02:55;;;;;;;33.47;22.43;;;13.10;99.90;;;;;;6183181;23;20934;-79
2023/04/17 09:05:24;;;;;;;31.93;22.50;;;13.20;99.90;;;;;;6183110;23;20413;-78
2023/04/17 09:08:05;;;;;;;26.93;14.53;;;13.40;99.90;;;;;;6182919;23;20417;-78
2023/04/17 09:10:35;;;;;;;29.73;19.07;;;13.30;99.90;;;;;;6183828;23;20448;-79
2023/04/17 09:13:02;;;;;;;28.53;20.43;;;13.50;99.90;;;;;;6183989;23;20441;-78
2023/04/17 09:15:29;;;;;;;29.77;20.77;;;13.80;99.90;;;;;;6184193;23;20412;-78
2023/04/17 09:17:57;;;;;;;25.60;17.30;;;13.70;99.90;;;;;;6184324;23;20500;-78
2023/04/17 09:20:25;;;;;;;31.87;23.93;;;14.00;99.90;;;;;;6183291;23;20421;-81
2023/04/17 09:23:00;;;;;;;27.20;20.23;;;14.10;99.90;;;;;;6183297;23;20414;-81
2023/04/17 09:25:27;;;;;;;29.90;19.70;;;14.60;99.90;;;;;;6183255;23;20455;-81
2023/04/17 09:28:01;;;;;;;26.70;19.20;;;14.70;99.90;;;;;;6183930;23;20422;-81
2023/04/17 09:30:28;;;;;;;31.27;17.83;;;14.50;99.90;;;;;;6182634;23;20426;-81
2023/04/17 09:33:08;;;;;;;24.10;17.00;;;14.20;99.90;;;;;;6182197;23;20527;-80
2023/04/17 09:35:37;;;;;;;33.27;20.70;;;14.20;99.90;;;;;;6157119;23;20494;-81
2023/04/17 09:38:05;;;;;;;30.47;21.17;;;14.30;99.90;;;;;;6183858;23;20418;-80
2023/04/17 09:40:38;;;;;;;21.73;14.63;;;14.30;99.90;;;;;;6183374;23;20412;-80
2023/04/17 09:43:06;;;;;;;31.90;20.27;;;14.50;99.50;;;;;;6183360;23;20958;-81
2023/04/17 09:45:37;;;;;;;28.97;18.70;;;14.30;99.50;;;;;;6182968;23;20451;-81
2023/04/17 09:48:08;;;;;;;29.10;20.07;;;14.80;99.60;;;;;;6183606;23;20450;-81
2023/04/17 09:50:35;;;;;;;22.03;14.50;;;15.40;97.80;;;;;;6184184;23;20789;-81
2023/04/17 09:53:03;;;;;;;23.30;17.63;;;15.50;96.60;;;;;;6183674;23;20487;-81
2023/04/17 09:55:31;;;;;;;29.90;18.40;;;15.00;94.50;;;;;;6157474;23;20419;-81
2023/04/17 09:58:01;;;;;;;27.33;19.17;;;14.80;96.30;;;;;;6183022;23;20926;-80
2023/04/17 10:00:32;;;;;;;26.37;17.17;;;15.00;96.80;;;;;;6183446;23;20982;-81
2023/04/17 10:03:00;;;;;;;31.00;19.10;;;15.10;93.80;;;;;;6183227;23;20954;-81
2023/04/17 10:05:31;;;;;;;26.50;16.70;;;16.00;93.40;;;;;;6182250;23;20980;-81
2023/04/17 10:07:58;;;;;;;23.33;18.33;;;16.40;92.50;;;;;;6182442;23;20404;-81
2023/04/17 10:10:29;;;;;;;21.60;15.77;;;17.70;92.00;;;;;;6183675;23;20427;-81
2023/04/17 10:12:58;;;;;;;28.90;17.17;;;17.70;86.40;;;;;;6185021;23;20947;-81
2023/04/17 10:15:26;;;;;;;23.20;17.27;;;17.70;84.00;;;;;;6184814;23;20994;-81
2023/04/17 10:17:55;;;;;;;24.70;16.00;;;17.80;84.10;;;;;;6185651;23;20915;-82
2023/04/17 10:20:43;;;;;;;26.70;18.90;;;18.10;76.30;;;;;;6186022;23;20413;-81
2023/04/17 10:23:32;;;;;;;22.03;16.40;;;18.00;76.00;;;;;;6186082;23;20523;-82
2023/04/17 10:26:39;;;;;;;21.23;14.93;;;18.40;75.40;;;;;;6185934;23;20429;-81
2023/04/17 10:29:06;;;;;;;18.73;14.27;;;17.90;68.20;;;;;;6186061;23;20405;-81
2023/04/17 10:32:24;;;;;;;20.93;15.67;;;17.90;69.30;;;;;;6154090;23;20435;-82
2023/04/17 10:34:53;;;;;;;25.57;17.47;;;17.60;68.00;;;;;;6065524;23;20432;-81
2023/04/17 10:37:22;;;;;;;23.30;17.50;;;17.10;70.00;;;;;;6148671;23;20432;-81
2023/04/17 10:39:59;;;;;;;22.73;17.00;;;17.50;71.90;;;;;;6155711;23;20426;-81
2023/04/17 10:42:28;;;;;;;19.10;11.43;;;17.40;67.70;;;;;;6156083;23;20399;-80
2023/04/17 10:45:00;;;;;;;19.67;16.10;;;17.20;67.60;;;;;;6153382;23;20437;-81
2023/04/17 10:47:33;;;;;;;23.63;15.77;;;16.80;71.60;;;;;;6155537;23;20404;-81
2023/04/17 10:50:03;;;;;;;20.40;15.10;;;17.20;67.60;;;;;;6154100;23;20413;-81
2023/04/17 10:52:39;;;;;;;24.60;17.43;;;17.70;69.10;;;;;;6155866;23;20490;-80
2023/04/17 10:55:07;;;;;;;23.27;18.60;;;18.30;64.50;;;;;;6154128;23;20401;-80
2023/04/17 10:57:57;;;;;;;21.50;14.77;;;18.40;66.90;;;;;;6153777;23;20468;-81
2023/04/17 11:00:33;;;;;;;18.10;13.93;;;18.70;52.00;;;;;;6152993;23;20414;-80
2023/04/17 11:03:00;;;;;;;19.33;11.83;;;19.00;53.80;;;;;;6152350;23;20480;-81
2023/04/17 11:05:28;;;;;;;16.93;11.73;;;18.30;51.60;;;;;;6164286;23;20449;-80
2023/04/17 11:07:56;;;;;;;15.67;12.57;;;17.90;47.20;;;;;;6153365;23;20468;-80
2023/04/17 11:10:23;;;;;;;17.97;13.30;;;17.80;51.20;;;;;;6164675;23;20427;-77
2023/04/17 11:12:54;;;;;;;18.47;13.03;;;18.20;51.50;;;;;;6155233;23;20478;-81
2023/04/17 11:15:26;;;;;;;16.30;12.70;;;18.00;49.00;;;;;;6155889;23;20740;-81
2023/04/17 11:17:54;;;;;;;14.73;11.83;;;18.20;46.80;;;;;;6154706;23;20434;-80
2023/04/17 11:20:22;;;;;;;15.80;11.53;;;19.70;48.70;;;;;;6155770;23;20426;-81
2023/04/17 11:22:50;;;;;;;19.10;11.77;;;19.50;41.20;;;;;;6155183;23;20423;-81
2023/04/17 11:25:26;;;;;;;20.13;11.53;;;19.10;38.20;;;;;;6155346;23;20454;-80
2023/04/17 11:27:56;;;;;;;15.30;10.63;;;19.10;37.90;;;;;;6155218;23;20429;-81
2023/04/17 11:30:28;;;;;;;14.43;11.13;;;19.20;34.60;;;;;;6167894;23;20915;-81
2023/04/17 11:32:59;;;;;;;14.13;11.10;;;19.80;35.10;;;;;;6185160;23;20449;-80
2023/04/17 11:35:31;;;;;;;16.27;12.37;;;19.40;34.70;;;;;;6185552;23;20399;-81
2023/04/17 11:38:05;;;;;;;20.73;12.87;;;19.40;34.70;;;;;;6185248;23;20422;-81
2023/04/17 11:40:34;;;;;;;16.33;12.50;;;19.60;34.90;;;;;;6184988;23;20413;-84
2023/04/17 11:43:06;;;;;;;17.10;11.50;;;19.70;32.00;;;;;;6157627;23;20443;-81
2023/04/17 11:45:34;;;;;;;12.57;9.70;;;19.40;35.20;;;;;;6184018;23;20405;-80
2023/04/17 11:48:01;;;;;;;14.83;10.30;;;19.60;32.80;;;;;;6185369;23;20738;-81
2023/04/17 11:50:31;;;;;;;12.60;9.17;;;20.30;26.70;;;;;;6185552;23;20535;-80
2023/04/17 11:53:00;;;;;;;15.40;11.03;;;19.60;34.90;;;;;;6185017;23;20444;-81
2023/04/17 11:55:30;;;;;;;14.33;10.23;;;20.20;27.20;;;;;;6184556;23;20911;-80
2023/04/17 11:57:59;;;;;;;15.33;10.30;;;19.80;30.50;;;;;;6185077;23;20888;-81
2023/04/17 12:00:30;;;;;;;13.67;10.23;;;20.30;26.30;;;;;;6184539;23;20934;-81
2023/04/17 12:02:57;;;;;;;15.33;10.30;;;19.30;28.50;;;;;;6184736;23;20462;-81
2023/04/17 12:05:26;;;;;;;14.87;9.40;;;19.20;27.60;;;;;;6184307;23;20423;-81
2023/04/17 12:08:01;;;;;;;14.63;10.20;;;18.90;26.20;;;;;;6184048;23;20496;-80
2023/04/17 12:10:39;;;;;;;17.90;10.07;;;19.20;26.60;;;;;;6183450;23;20425;-80
2023/04/17 12:13:08;;;;;;;12.20;8.70;;;19.60;26.80;;;;;;6184348;23;20442;-82
2023/04/17 12:15:35;;;;;;;12.47;8.33;;;20.00;27.00;;;;;;6184387;23;20423;-80
2023/04/17 12:18:04;;;;;;;12.70;8.00;;;20.30;23.00;;;;;;6184277;23;20450;-81
2023/04/17 12:20:33;;;;;;;15.03;9.53;;;20.80;22.70;;;;;;6184527;23;20499;-80
2023/04/17 12:23:00;;;;;;;14.17;8.47;;;20.60;17.70;;;;;;6183976;23;20791;-81
2023/04/17 12:25:27;;;;;;;14.90;9.00;;;20.50;18.80;;;;;;6184076;23;20421;-81
2023/04/17 12:27:55;;;;;;;12.97;8.20;;;20.20;17.80;;;;;;6184803;23;20415;-80
2023/04/17 12:30:24;;;;;;;13.90;7.43;;;20.50;20.10;;;;;;6184483;23;20773;-81